Time;durP1;ratioP1;P1;durP2;ratioP2;P2;SDS_P1;SDS_P2;PMS_P1;PMS_P2;Temp;Humidity;BMP_temperature;BMP_pressure;BME280_temperature;BME280_humidity;BME280_pressure;Samples;Min_cycle;Max_cycle;Signal;HPM_P1;HPM_P2
2021/01/08 00:01:21;;;;;;;2.03;0.80;;;3.30;99.90;;;;;;5090338;28;20287;-68
2021/01/08 00:03:46;;;;;;;1.15;0.90;;;3.30;99.90;;;;;;5089602;28;20020;-68
2021/01/08 00:06:12;;;;;;;2.53;0.90;;;3.30;99.90;;;;;;5085042;28;20381;-68
2021/01/08 00:08:37;;;;;;;0.95;0.90;;;3.30;99.90;;;;;;5074456;28;20021;-68
2021/01/08 00:11:03;;;;;;;0.75;0.68;;;3.30;99.90;;;;;;5089481;28;20411;-68
2021/01/08 00:13:28;;;;;;;1.45;0.80;;;3.40;99.90;;;;;;5089925;28;20028;-68
2021/01/08 00:15:54;;;;;;;0.85;0.70;;;3.30;99.90;;;;;;5090780;28;20024;-69
2021/01/08 00:18:19;;;;;;;2.55;0.60;;;3.30;99.90;;;;;;5089906;28;20077;-69
2021/01/08 00:20:45;;;;;;;1.00;0.55;;;3.30;99.90;;;;;;5091291;28;20032;-69
2021/01/08 00:23:11;;;;;;;1.02;0.70;;;3.40;99.90;;;;;;5091116;28;20028;-67
2021/01/08 00:25:36;;;;;;;3.80;0.60;;;3.30;99.90;;;;;;5090056;28;20398;-67
2021/01/08 00:28:02;;;;;;;0.82;0.75;;;3.30;99.90;;;;;;5091555;28;20036;-68
2021/01/08 00:30:28;;;;;;;0.85;0.77;;;3.30;99.90;;;;;;5091146;28;20077;-68
2021/01/08 00:32:53;;;;;;;2.50;0.75;;;3.30;99.90;;;;;;5089888;28;20035;-69
2021/01/08 00:35:19;;;;;;;2.47;0.80;;;3.30;99.90;;;;;;5090342;28;20452;-68
2021/01/08 00:37:44;;;;;;;0.45;0.43;;;3.30;99.90;;;;;;5090551;28;20028;-68
2021/01/08 00:40:10;;;;;;;2.53;0.77;;;3.30;99.90;;;;;;5094278;28;20028;-68
2021/01/08 00:42:36;;;;;;;1.98;0.80;;;3.30;99.90;;;;;;5093998;28;20024;-68
2021/01/08 00:45:04;;;;;;;1.30;1.10;;;3.20;99.90;;;;;;5090834;28;20476;-68
2021/01/08 00:47:30;;;;;;;1.10;0.80;;;3.20;99.90;;;;;;5082914;28;20024;-68
2021/01/08 00:49:55;;;;;;;3.00;1.02;;;3.30;99.90;;;;;;5094208;28;20035;-69
2021/01/08 00:52:21;;;;;;;1.00;0.80;;;3.20;99.90;;;;;;5093184;28;20090;-69
2021/01/08 00:54:48;;;;;;;1.90;0.60;;;3.20;99.90;;;;;;5094134;28;20028;-68
2021/01/08 00:57:14;;;;;;;0.68;0.68;;;3.20;99.90;;;;;;5093717;28;20020;-68
2021/01/08 00:59:40;;;;;;;2.65;0.50;;;3.20;99.90;;;;;;5093055;28;20505;-68
2021/01/08 01:02:05;;;;;;;1.30;0.45;;;3.30;99.90;;;;;;5094083;28;20028;-68
2021/01/08 01:04:31;;;;;;;0.85;0.60;;;3.30;99.90;;;;;;5093437;28;20024;-69
2021/01/08 01:06:56;;;;;;;1.75;0.40;;;3.20;99.90;;;;;;5093267;28;20061;-69
2021/01/08 01:09:22;;;;;;;1.70;0.50;;;3.30;99.90;;;;;;5093472;28;20035;-70
2021/01/08 01:11:47;;;;;;;0.85;0.73;;;3.30;99.90;;;;;;5093703;28;20357;-68
2021/01/08 01:14:13;;;;;;;2.17;0.57;;;3.40;99.90;;;;;;5082080;28;20020;-68
2021/01/08 01:16:38;;;;;;;1.85;0.77;;;3.40;99.90;;;;;;5073142;28;20020;-68
2021/01/08 01:19:04;;;;;;;0.77;0.57;;;3.30;99.90;;;;;;5073147;28;20124;-68
2021/01/08 01:21:30;;;;;;;1.35;0.50;;;3.30;99.90;;;;;;5072296;28;20016;-68
2021/01/08 01:23:55;;;;;;;1.27;0.35;;;3.40;99.90;;;;;;5073153;28;20036;-68
2021/01/08 01:26:21;;;;;;;0.73;0.30;;;3.40;99.90;;;;;;5072920;28;20044;-68
2021/01/08 01:28:47;;;;;;;0.98;0.47;;;3.40;99.90;;;;;;5072244;28;20114;-68
2021/01/08 01:31:13;;;;;;;0.65;0.38;;;3.30;99.90;;;;;;5072920;28;20121;-69
2021/01/08 01:33:38;;;;;;;3.65;0.60;;;3.30;99.90;;;;;;5072844;28;20024;-68
2021/01/08 01:36:07;;;;;;;0.43;0.43;;;3.40;99.90;;;;;;5077770;28;20016;-69
2021/01/08 01:38:33;;;;;;;1.05;0.52;;;3.40;99.90;;;;;;5072484;28;20024;-69
2021/01/08 01:41:00;;;;;;;0.90;0.60;;;3.40;99.90;;;;;;5072127;28;20087;-69
2021/01/08 01:43:26;;;;;;;1.40;0.60;;;3.30;99.90;;;;;;5072645;28;20107;-69
2021/01/08 01:45:51;;;;;;;0.95;0.57;;;3.40;99.90;;;;;;5072972;28;20025;-69
2021/01/08 01:48:18;;;;;;;1.33;0.85;;;3.40;99.90;;;;;;5087254;28;20016;-70
2021/01/08 01:50:44;;;;;;;1.70;0.70;;;3.40;99.90;;;;;;5093088;28;20032;-69
2021/01/08 01:53:09;;;;;;;1.08;0.60;;;3.40;99.90;;;;;;5092964;28;20517;-70
2021/01/08 01:55:35;;;;;;;2.33;0.50;;;3.30;99.90;;;;;;5091874;28;20028;-69
2021/01/08 01:58:03;;;;;;;0.63;0.32;;;3.40;99.90;;;;;;5092855;28;20020;-69
2021/01/08 02:00:28;;;;;;;0.43;0.40;;;3.40;99.90;;;;;;5092592;28;20059;-69
2021/01/08 02:03:15;;;;;;;1.90;0.55;;;3.40;99.90;;;;;;5092167;28;20062;-69
2021/01/08 02:05:41;;;;;;;0.80;0.40;;;3.40;99.90;;;;;;5092648;28;20031;-69
2021/01/08 02:08:15;;;;;;;0.50;0.40;;;3.40;99.90;;;;;;5092710;28;20077;-69
2021/01/08 02:10:49;;;;;;;0.30;0.30;;;3.30;99.90;;;;;;5091466;28;20084;-70
2021/01/08 02:13:25;;;;;;;1.67;0.60;;;3.30;99.90;;;;;;5092533;28;20099;-69
2021/01/08 02:15:53;;;;;;;2.22;1.40;;;3.40;99.90;;;;;;5092217;28;20024;-69
2021/01/08 02:18:19;;;;;;;0.80;0.65;;;3.30;99.90;;;;;;5091426;28;20084;-69
2021/01/08 02:20:46;;;;;;;1.67;0.45;;;3.40;99.90;;;;;;5092112;28;20118;-69
2021/01/08 02:23:23;;;;;;;0.63;0.43;;;3.40;99.90;;;;;;5091590;28;20042;-69
2021/01/08 02:25:50;;;;;;;1.27;0.63;;;3.40;99.90;;;;;;5091743;28;20437;-69
2021/01/08 02:28:24;;;;;;;2.95;0.65;;;3.40;99.90;;;;;;5091947;28;20055;-69
2021/01/08 02:30:51;;;;;;;0.82;0.63;;;3.40;99.90;;;;;;5091404;28;20059;-69
2021/01/08 02:33:17;;;;;;;1.38;0.80;;;3.30;99.90;;;;;;5091898;28;20027;-68
2021/01/08 02:35:46;;;;;;;1.30;0.80;;;3.40;99.90;;;;;;5092395;28;20024;-69
2021/01/08 02:38:16;;;;;;;0.52;0.50;;;3.40;99.90;;;;;;5091631;28;20024;-69
2021/01/08 02:40:44;;;;;;;0.82;0.70;;;3.40;99.90;;;;;;5092492;28;20119;-68
2021/01/08 02:43:12;;;;;;;0.68;0.50;;;3.40;99.90;;;;;;5092268;28;20028;-69
2021/01/08 02:45:37;;;;;;;1.33;0.65;;;3.40;99.90;;;;;;5083902;28;20358;-68
2021/01/08 02:48:03;;;;;;;0.98;0.50;;;3.30;99.90;;;;;;5085697;28;20236;-68
2021/01/08 02:50:29;;;;;;;2.70;0.50;;;3.40;99.90;;;;;;5091704;28;20118;-69
2021/01/08 02:53:02;;;;;;;1.85;0.30;;;3.40;99.90;;;;;;5091407;28;20103;-68
2021/01/08 02:55:33;;;;;;;2.05;0.40;;;3.40;99.90;;;;;;5075369;28;20040;-69
2021/01/08 02:58:00;;;;;;;2.47;0.57;;;3.40;99.90;;;;;;5071832;28;20112;-68
2021/01/08 03:00:30;;;;;;;1.00;0.57;;;3.40;99.90;;;;;;5072446;28;20044;-68
2021/01/08 03:02:57;;;;;;;0.52;0.30;;;3.40;99.90;;;;;;5089802;28;20035;-68
2021/01/08 03:05:23;;;;;;;0.77;0.60;;;3.40;99.90;;;;;;5079478;28;20046;-69
2021/01/08 03:07:50;;;;;;;0.52;0.30;;;3.40;99.90;;;;;;5091963;28;20024;-68
2021/01/08 03:10:16;;;;;;;1.75;0.65;;;3.40;99.90;;;;;;5091354;28;20016;-68
2021/01/08 03:12:50;;;;;;;1.10;0.50;;;3.40;99.90;;;;;;5078542;28;20028;-68
2021/01/08 03:15:16;;;;;;;2.22;0.80;;;3.40;99.90;;;;;;5090754;28;20022;-68
2021/01/08 03:17:41;;;;;;;1.20;0.70;;;3.40;99.90;;;;;;5091700;28;20118;-68
2021/01/08 03:20:08;;;;;;;0.80;0.50;;;3.40;99.90;;;;;;5090954;28;20120;-68
2021/01/08 03:22:33;;;;;;;1.00;0.80;;;3.40;99.90;;;;;;5091500;28;20016;-68
2021/01/08 03:24:59;;;;;;;3.10;0.68;;;3.40;99.90;;;;;;5091566;28;20027;-69
2021/01/08 03:27:24;;;;;;;3.80;1.00;;;3.40;99.90;;;;;;5090227;28;20036;-69
2021/01/08 03:29:50;;;;;;;1.40;1.20;;;3.40;99.90;;;;;;5078229;28;20032;-68
2021/01/08 03:32:15;;;;;;;1.77;0.70;;;3.40;99.90;;;;;;5090060;28;20498;-68
2021/01/08 03:34:41;;;;;;;1.20;0.77;;;3.40;99.90;;;;;;5090776;28;20024;-69
2021/01/08 03:37:06;;;;;;;1.20;1.02;;;3.40;99.90;;;;;;5091383;28;20500;-69
2021/01/08 03:39:32;;;;;;;1.60;1.00;;;3.40;99.90;;;;;;5091097;28;20370;-69
2021/01/08 03:41:57;;;;;;;1.98;1.13;;;3.40;99.90;;;;;;5090455;28;20369;-69
2021/01/08 03:44:23;;;;;;;1.48;0.85;;;3.40;99.90;;;;;;5090916;28;20490;-69
2021/01/08 03:46:48;;;;;;;1.13;0.80;;;3.40;99.90;;;;;;5091368;28;20024;-69
2021/01/08 03:49:14;;;;;;;1.05;0.70;;;3.40;99.90;;;;;;5090201;28;20012;-69
2021/01/08 03:51:39;;;;;;;1.40;0.90;;;3.40;99.90;;;;;;5091383;28;20012;-69
2021/01/08 03:54:05;;;;;;;1.77;0.95;;;3.40;99.90;;;;;;5091074;28;20401;-69
2021/01/08 03:56:30;;;;;;;0.85;0.77;;;3.30;99.90;;;;;;5090353;28;20422;-69
2021/01/08 03:58:56;;;;;;;2.03;0.90;;;3.40;99.90;;;;;;5090491;28;20024;-69
2021/01/08 04:01:21;;;;;;;2.92;0.98;;;3.30;99.90;;;;;;5091019;28;20032;-68
2021/01/08 04:03:47;;;;;;;1.70;1.15;;;3.40;99.90;;;;;;5079146;28;20013;-69
2021/01/08 04:06:12;;;;;;;1.92;1.02;;;3.40;99.90;;;;;;5088166;28;20031;-68
2021/01/08 04:08:38;;;;;;;2.78;0.70;;;3.40;99.90;;;;;;5090355;28;20028;-69
2021/01/08 04:11:03;;;;;;;1.02;0.80;;;3.40;99.90;;;;;;5090739;28;20065;-68
2021/01/08 04:13:29;;;;;;;5.13;1.30;;;3.30;99.90;;;;;;5094515;28;20060;-68
2021/01/08 04:15:54;;;;;;;1.98;1.20;;;3.30;99.90;;;;;;5094719;28;20039;-69
2021/01/08 04:18:20;;;;;;;1.35;1.17;;;3.30;99.90;;;;;;5094690;28;20024;-68
2021/01/08 04:20:45;;;;;;;2.28;1.10;;;3.30;99.90;;;;;;5094908;28;20039;-69
2021/01/08 04:23:11;;;;;;;2.97;1.10;;;3.30;99.90;;;;;;5094181;28;20371;-68
2021/01/08 04:25:36;;;;;;;2.05;0.88;;;3.30;99.90;;;;;;5094671;28;20032;-67
2021/01/08 04:28:02;;;;;;;1.92;0.90;;;3.30;99.90;;;;;;5094050;28;20480;-68
2021/01/08 04:30:27;;;;;;;2.00;1.63;;;3.30;99.90;;;;;;5093646;28;20180;-68
2021/01/08 04:32:53;;;;;;;1.20;1.08;;;3.30;99.90;;;;;;5094588;28;20490;-68
2021/01/08 04:35:18;;;;;;;9.70;1.00;;;3.20;99.90;;;;;;5093923;28;20449;-68
2021/01/08 04:37:44;;;;;;;3.08;1.00;;;3.30;99.90;;;;;;5093532;28;20107;-68
2021/01/08 04:40:11;;;;;;;1.83;0.82;;;3.30;99.90;;;;;;5093697;28;20043;-67
2021/01/08 04:42:36;;;;;;;0.82;0.68;;;3.30;99.90;;;;;;5093778;28;20028;-68
2021/01/08 04:45:05;;;;;;;1.77;0.65;;;3.30;99.90;;;;;;5093409;28;20031;-68
2021/01/08 04:47:33;;;;;;;3.10;0.80;;;3.20;99.90;;;;;;5093786;28;20012;-69
2021/01/08 04:50:01;;;;;;;8.55;1.27;;;3.30;99.90;;;;;;5094125;28;20053;-69
2021/01/08 04:52:27;;;;;;;1.00;0.70;;;3.20;99.90;;;;;;5093025;28;20074;-69
2021/01/08 04:54:53;;;;;;;1.90;0.70;;;3.20;99.90;;;;;;5094272;28;20030;-69
2021/01/08 04:57:21;;;;;;;0.38;0.38;;;3.30;99.90;;;;;;5094067;28;20099;-68
2021/01/08 04:59:46;;;;;;;1.30;0.80;;;3.20;99.90;;;;;;5093765;28;20396;-69
2021/01/08 05:02:12;;;;;;;1.13;0.70;;;3.20;99.90;;;;;;5094479;28;20020;-69
2021/01/08 05:04:39;;;;;;;3.20;0.65;;;3.20;99.90;;;;;;5079432;28;20032;-69
2021/01/08 05:07:04;;;;;;;2.70;0.75;;;3.20;99.90;;;;;;5093092;28;20024;-69
2021/01/08 05:09:30;;;;;;;1.38;0.77;;;3.20;99.90;;;;;;5093382;28;20162;-68
2021/01/08 05:11:57;;;;;;;2.25;0.57;;;3.20;99.90;;;;;;5092811;28;20027;-68
2021/01/08 05:14:25;;;;;;;2.80;0.80;;;3.20;99.90;;;;;;5093428;28;20109;-69
2021/01/08 05:16:50;;;;;;;1.10;0.80;;;3.20;99.90;;;;;;5093057;28;20043;-69
2021/01/08 05:19:17;;;;;;;0.50;0.50;;;3.20;99.90;;;;;;5091670;28;20476;-69
2021/01/08 05:21:43;;;;;;;0.60;0.47;;;3.10;99.90;;;;;;5092580;28;20040;-69
2021/01/08 05:24:10;;;;;;;4.40;0.65;;;3.10;99.90;;;;;;5091927;28;20123;-69
2021/01/08 05:26:35;;;;;;;3.47;0.57;;;3.10;99.90;;;;;;5092345;28;20044;-68
2021/01/08 05:29:03;;;;;;;2.22;0.40;;;3.10;99.90;;;;;;5093353;28;20546;-68
2021/01/08 05:31:30;;;;;;;0.55;0.50;;;3.10;99.90;;;;;;5092806;28;20380;-69
2021/01/08 05:33:56;;;;;;;2.72;0.70;;;3.10;99.90;;;;;;5092319;28;20039;-69
2021/01/08 05:36:23;;;;;;;2.05;0.70;;;3.10;99.90;;;;;;5092892;28;20514;-69
2021/01/08 05:38:57;;;;;;;2.22;0.60;;;3.10;99.90;;;;;;5092725;28;20124;-69
2021/01/08 05:41:24;;;;;;;0.63;0.50;;;3.20;99.90;;;;;;5092084;28;20119;-69
2021/01/08 05:43:49;;;;;;;0.50;0.50;;;3.10;99.90;;;;;;5092682;28;20027;-68
2021/01/08 05:46:34;;;;;;;2.15;0.52;;;3.10;99.90;;;;;;5092667;28;20421;-68
2021/01/08 05:49:00;;;;;;;0.90;0.50;;;3.20;99.90;;;;;;5092153;28;20432;-68
2021/01/08 05:51:30;;;;;;;1.52;0.45;;;3.20;99.90;;;;;;5092299;28;20148;-68
2021/01/08 05:53:59;;;;;;;3.40;0.77;;;3.20;99.90;;;;;;5092765;28;20023;-68
2021/01/08 05:56:25;;;;;;;2.70;0.55;;;3.20;99.90;;;;;;5091938;28;20028;-68
2021/01/08 05:58:50;;;;;;;0.68;0.50;;;3.20;99.90;;;;;;5092480;28;20031;-68
2021/01/08 06:01:17;;;;;;;0.50;0.50;;;3.20;99.90;;;;;;5092040;28;20032;-68
2021/01/08 06:03:44;;;;;;;2.72;0.47;;;3.20;99.90;;;;;;5081646;28;20020;-68
2021/01/08 06:06:11;;;;;;;0.90;0.50;;;3.20;99.90;;;;;;5089499;28;20020;-68
2021/01/08 06:08:36;;;;;;;1.83;0.70;;;3.20;99.90;;;;;;5091281;28;20024;-69
2021/01/08 06:11:04;;;;;;;0.57;0.57;;;3.20;99.90;;;;;;5092431;28;20035;-69
2021/01/08 06:13:31;;;;;;;0.80;0.50;;;3.20;99.90;;;;;;5092039;28;20036;-69
2021/01/08 06:15:57;;;;;;;0.60;0.50;;;3.20;99.90;;;;;;5091746;28;20039;-69
2021/01/08 06:18:25;;;;;;;1.30;0.60;;;3.20;99.90;;;;;;5091778;28;20055;-69
2021/01/08 06:21:03;;;;;;;0.63;0.50;;;3.20;99.90;;;;;;5091648;28;20426;-69
2021/01/08 06:23:37;;;;;;;1.15;0.70;;;3.20;99.90;;;;;;5076211;28;20016;-67
2021/01/08 06:26:04;;;;;;;3.50;0.82;;;3.20;99.90;;;;;;5073242;28;20389;-68
2021/01/08 06:28:35;;;;;;;0.88;0.65;;;3.20;99.90;;;;;;5070850;28;20066;-67
2021/01/08 06:31:07;;;;;;;1.83;0.82;;;3.20;99.90;;;;;;5070042;28;20028;-67
2021/01/08 06:33:36;;;;;;;2.78;0.70;;;3.20;99.90;;;;;;5070589;28;20484;-67
2021/01/08 06:36:15;;;;;;;3.05;0.85;;;3.30;99.90;;;;;;5069964;28;20074;-67
2021/01/08 06:38:45;;;;;;;0.60;0.40;;;3.20;99.90;;;;;;5079054;28;20373;-67
2021/01/08 06:41:13;;;;;;;1.00;0.75;;;3.20;99.90;;;;;;5076886;28;20071;-67
2021/01/08 06:43:44;;;;;;;2.15;0.82;;;3.30;99.90;;;;;;5073939;28;20032;-67
2021/01/08 06:46:15;;;;;;;;;;;3.30;99.90;;;;;;5073044;28;20025;-67
2021/01/08 06:48:48;;;;;;;2.78;1.00;;;3.30;99.90;;;;;;5073144;28;19911;-68
2021/01/08 06:51:28;;;;;;;1.98;0.73;;;3.30;99.90;;;;;;5069645;28;20426;-68
2021/01/08 06:54:03;;;;;;;1.00;0.70;;;3.30;99.90;;;;;;5070792;28;20242;-68
2021/01/08 06:56:32;;;;;;;1.17;0.70;;;3.30;99.90;;;;;;5070423;28;20124;-68
2021/01/08 06:58:58;;;;;;;0.47;0.47;;;3.20;99.90;;;;;;5070118;28;20067;-68
2021/01/08 07:01:46;;;;;;;3.42;0.70;;;3.20;99.90;;;;;;5076056;28;20028;-68
2021/01/08 07:04:13;;;;;;;1.30;0.80;;;3.20;99.90;;;;;;5083032;28;20363;-68
2021/01/08 07:06:40;;;;;;;2.00;0.70;;;3.20;99.90;;;;;;5087104;28;20066;-67
2021/01/08 07:09:07;;;;;;;2.10;1.08;;;3.20;99.90;;;;;;5089015;28;20020;-67
2021/01/08 07:11:34;;;;;;;5.18;0.90;;;3.20;99.90;;;;;;5083020;28;20092;-67
2021/01/08 07:14:22;;;;;;;1.30;0.95;;;3.20;99.90;;;;;;5090074;28;20020;-67
2021/01/08 07:16:52;;;;;;;1.60;1.20;;;3.20;99.90;;;;;;5090000;28;20043;-68
2021/01/08 07:19:20;;;;;;;1.75;1.08;;;3.30;99.90;;;;;;5090002;28;20017;-68
2021/01/08 07:21:47;;;;;;;2.08;1.02;;;3.30;99.90;;;;;;5085200;28;20118;-68
2021/01/08 07:24:14;;;;;;;2.08;0.80;;;3.30;99.90;;;;;;5077113;28;20480;-68
2021/01/08 07:26:40;;;;;;;2.15;0.90;;;3.30;99.90;;;;;;5087835;28;20047;-68
2021/01/08 07:29:08;;;;;;;1.42;0.95;;;3.30;99.90;;;;;;5082635;28;20036;-68
2021/01/08 07:31:38;;;;;;;1.55;0.90;;;3.30;99.90;;;;;;5081002;28;20031;-68
2021/01/08 07:34:07;;;;;;;1.20;0.93;;;3.30;99.90;;;;;;5084935;28;20351;-68
2021/01/08 07:36:34;;;;;;;0.80;0.80;;;3.30;99.90;;;;;;5086570;28;20060;-68
2021/01/08 07:39:00;;;;;;;2.17;1.05;;;3.30;99.90;;;;;;5088788;28;20384;-67
2021/01/08 07:41:36;;;;;;;1.02;0.93;;;3.30;99.90;;;;;;5078302;28;20047;-67
2021/01/08 07:44:03;;;;;;;1.33;1.00;;;3.30;99.90;;;;;;5086661;28;20024;-67
2021/01/08 07:46:31;;;;;;;1.30;1.15;;;3.30;99.90;;;;;;5089240;28;20103;-68
2021/01/08 07:48:58;;;;;;;4.00;1.65;;;3.30;99.90;;;;;;5076380;28;20031;-68
2021/01/08 07:51:43;;;;;;;1.80;1.30;;;3.30;99.90;;;;;;5086754;28;20051;-68
2021/01/08 07:54:09;;;;;;;2.38;1.45;;;3.30;99.90;;;;;;5082329;28;20024;-68
2021/01/08 07:56:35;;;;;;;2.75;1.70;;;3.30;99.90;;;;;;5086417;28;20024;-69
2021/01/08 07:59:06;;;;;;;3.47;1.40;;;3.30;99.90;;;;;;5088075;28;20103;-68
2021/01/08 08:01:33;;;;;;;2.45;1.35;;;3.40;99.90;;;;;;5088642;28;20036;-68
2021/01/08 08:04:04;;;;;;;2.08;1.40;;;3.40;99.90;;;;;;5085917;28;20067;-69
2021/01/08 08:06:35;;;;;;;2.63;1.08;;;3.40;99.90;;;;;;5087572;28;20024;-69
2021/01/08 08:09:06;;;;;;;3.63;1.20;;;3.40;99.90;;;;;;5089212;28;20016;-68
2021/01/08 08:11:37;;;;;;;;;;;3.40;99.90;;;;;;5089901;28;20024;-68
2021/01/08 08:14:12;;;;;;;1.60;0.85;;;3.50;99.90;;;;;;5090789;28;19911;-68
2021/01/08 08:16:39;;;;;;;2.35;1.10;;;3.50;99.90;;;;;;5082626;28;20021;-67
2021/01/08 08:19:06;;;;;;;2.28;1.20;;;3.50;99.90;;;;;;5071159;28;20444;-67
2021/01/08 08:21:33;;;;;;;2.05;1.20;;;3.50;99.90;;;;;;5079473;28;20021;-68
2021/01/08 08:24:00;;;;;;;2.60;1.02;;;3.60;99.90;;;;;;5070397;28;20012;-68
2021/01/08 08:26:26;;;;;;;3.72;1.70;;;3.50;99.90;;;;;;5070617;28;20048;-67
2021/01/08 08:29:07;;;;;;;1.42;1.30;;;3.50;99.90;;;;;;5080108;28;20040;-68
2021/01/08 08:31:35;;;;;;;1.17;1.10;;;3.60;99.90;;;;;;5076383;28;20068;-68
2021/01/08 08:34:01;;;;;;;1.83;1.00;;;3.60;99.90;;;;;;5070920;28;20032;-66
2021/01/08 08:36:28;;;;;;;2.13;1.33;;;3.60;99.90;;;;;;5070042;28;20032;-67
2021/01/08 08:38:59;;;;;;;1.60;1.13;;;3.70;99.90;;;;;;5071352;28;20021;-66
2021/01/08 08:41:24;;;;;;;;;;;3.70;99.90;;;;;;5081607;28;20035;-67
2021/01/08 08:44:08;;;;;;;1.42;1.05;;;3.70;99.90;;;;;;5079588;28;19912;-68
2021/01/08 08:46:45;;;;;;;3.20;1.08;;;3.70;99.90;;;;;;5086616;28;20020;-67
2021/01/08 08:49:12;;;;;;;1.83;1.40;;;3.80;99.90;;;;;;5071384;28;20073;-68
2021/01/08 08:51:42;;;;;;;2.90;2.00;;;3.80;99.90;;;;;;5070815;28;20021;-68
2021/01/08 08:54:08;;;;;;;3.20;2.42;;;3.80;99.90;;;;;;5071451;28;20028;-67
2021/01/08 08:56:35;;;;;;;6.70;2.53;;;3.80;99.90;;;;;;5073609;28;20070;-67
2021/01/08 08:59:00;;;;;;;2.50;1.83;;;3.80;99.90;;;;;;5071807;28;20307;-67
2021/01/08 09:01:39;;;;;;;4.15;2.10;;;3.80;99.90;;;;;;5074466;28;20115;-68
2021/01/08 09:04:06;;;;;;;1.90;1.63;;;3.80;99.90;;;;;;5074642;28;20036;-66
2021/01/08 09:06:35;;;;;;;7.10;2.03;;;3.90;99.90;;;;;;5080559;28;20036;-67
2021/01/08 09:09:11;;;;;;;3.97;2.30;;;3.90;99.90;;;;;;5095137;28;20440;-67
2021/01/08 09:11:48;;;;;;;3.13;2.05;;;4.00;99.90;;;;;;5094468;28;20024;-68
2021/01/08 09:14:18;;;;;;;2.60;2.38;;;4.00;99.90;;;;;;5094937;28;20142;-69
2021/01/08 09:16:52;;;;;;;7.95;2.03;;;4.00;99.90;;;;;;5094864;28;20027;-68
2021/01/08 09:19:43;;;;;;;4.78;2.50;;;4.00;99.90;;;;;;5093728;28;20028;-67
2021/01/08 09:22:11;;;;;;;1.90;1.70;;;4.00;99.90;;;;;;5095176;28;20024;-68
2021/01/08 09:24:39;;;;;;;2.47;2.28;;;4.00;99.90;;;;;;5094610;28;20020;-68
2021/01/08 09:27:08;;;;;;;7.00;2.38;;;4.00;99.90;;;;;;5094871;28;20048;-67
2021/01/08 09:29:35;;;;;;;3.75;2.22;;;4.00;99.90;;;;;;5095675;28;20051;-68
2021/01/08 09:32:02;;;;;;;2.75;2.15;;;4.10;99.90;;;;;;5095524;28;20055;-67
2021/01/08 09:34:28;;;;;;;4.43;2.20;;;4.10;99.90;;;;;;5094675;28;20020;-67
2021/01/08 09:36:56;;;;;;;2.60;2.40;;;4.10;99.90;;;;;;5087228;28;20554;-68
2021/01/08 09:39:23;;;;;;;3.50;2.50;;;4.10;99.90;;;;;;5087736;28;20472;-68
2021/01/08 09:42:00;;;;;;;3.17;2.40;;;4.20;99.90;;;;;;5074430;28;20028;-68
2021/01/08 09:44:34;;;;;;;2.78;2.20;;;4.20;99.90;;;;;;5075458;28;20441;-68
2021/01/08 09:47:10;;;;;;;2.35;1.65;;;4.30;99.90;;;;;;5081056;28;20032;-68
2021/01/08 09:49:47;;;;;;;2.75;1.88;;;4.30;99.90;;;;;;5076500;28;20123;-68
2021/01/08 09:52:13;;;;;;;7.35;2.72;;;4.30;99.90;;;;;;5081466;28;20105;-68
2021/01/08 09:54:40;;;;;;;3.88;1.50;;;4.40;99.90;;;;;;5073074;28;20052;-69
2021/01/08 09:57:05;;;;;;;2.08;1.40;;;4.30;99.90;;;;;;5073297;28;20052;-68
2021/01/08 09:59:31;;;;;;;1.33;1.23;;;4.40;99.90;;;;;;5080279;28;20545;-69
2021/01/08 10:01:59;;;;;;;1.50;1.30;;;4.40;99.90;;;;;;5073762;28;20515;-67
2021/01/08 10:04:32;;;;;;;1.75;1.60;;;4.40;99.90;;;;;;5076428;28;20124;-66
2021/01/08 10:07:00;;;;;;;1.33;1.02;;;4.30;99.90;;;;;;5091132;28;20023;-68
2021/01/08 10:09:26;;;;;;;3.80;1.48;;;4.30;99.90;;;;;;5076543;28;20055;-68
2021/01/08 10:11:58;;;;;;;3.40;1.60;;;4.30;99.90;;;;;;5076203;28;20043;-67
2021/01/08 10:14:29;;;;;;;2.42;1.27;;;4.30;99.90;;;;;;5080844;28;20061;-67
2021/01/08 10:16:55;;;;;;;6.70;1.50;;;4.30;99.90;;;;;;5073595;28;20029;-66
2021/01/08 10:19:20;;;;;;;2.05;1.52;;;4.40;99.90;;;;;;5072977;28;20549;-66
2021/01/08 10:21:46;;;;;;;2.13;1.70;;;4.40;99.90;;;;;;5072727;28;20035;-66
2021/01/08 10:24:24;;;;;;;2.83;1.60;;;4.40;99.90;;;;;;5073627;28;20024;-66
2021/01/08 10:26:50;;;;;;;3.28;1.92;;;4.40;99.90;;;;;;5076395;28;20115;-66
2021/01/08 10:29:15;;;;;;;1.95;1.50;;;4.40;99.90;;;;;;5081772;28;20104;-66
2021/01/08 10:31:40;;;;;;;2.80;2.13;;;4.40;99.90;;;;;;5074274;28;20017;-66
2021/01/08 10:34:06;;;;;;;3.92;2.50;;;4.50;99.90;;;;;;5073465;28;20021;-67
2021/01/08 10:36:35;;;;;;;3.72;2.38;;;4.50;99.90;;;;;;5071781;28;20594;-66
2021/01/08 10:39:00;;;;;;;2.97;2.35;;;4.60;99.90;;;;;;5072941;28;20034;-66
2021/01/08 10:41:26;;;;;;;7.53;2.25;;;4.70;99.90;;;;;;5072777;28;20025;-67
2021/01/08 10:43:51;;;;;;;3.63;1.88;;;4.80;99.90;;;;;;5071838;28;20028;-67
2021/01/08 10:46:21;;;;;;;1.90;1.63;;;4.70;99.90;;;;;;5072648;28;20025;-67
2021/01/08 10:48:46;;;;;;;1.50;1.40;;;4.70;99.90;;;;;;5085077;28;20160;-67
2021/01/08 10:51:12;;;;;;;3.10;1.60;;;4.60;99.90;;;;;;5071927;28;20071;-66
2021/01/08 10:53:38;;;;;;;1.40;1.30;;;4.60;99.90;;;;;;5072480;28;20024;-66
2021/01/08 10:56:04;;;;;;;1.35;1.20;;;4.70;99.90;;;;;;5072598;28;20025;-66
2021/01/08 10:58:30;;;;;;;1.60;1.00;;;4.80;99.90;;;;;;5071989;28;20058;-67
2021/01/08 11:00:56;;;;;;;1.45;1.20;;;4.80;99.90;;;;;;5086712;28;20116;-66
2021/01/08 11:03:21;;;;;;;2.25;1.10;;;4.90;99.90;;;;;;5087598;28;20062;-67
2021/01/08 11:05:49;;;;;;;0.98;0.98;;;4.70;99.90;;;;;;5088841;28;20016;-67
2021/01/08 11:08:15;;;;;;;2.47;1.10;;;4.60;99.90;;;;;;5090331;28;20486;-67
2021/01/08 11:10:41;;;;;;;1.40;1.30;;;4.60;99.90;;;;;;5088693;28;20024;-67
2021/01/08 11:13:07;;;;;;;0.85;0.85;;;4.50;99.90;;;;;;5074085;28;20093;-67
2021/01/08 11:15:33;;;;;;;1.13;1.05;;;4.50;99.90;;;;;;5071795;28;20086;-67
2021/01/08 11:17:59;;;;;;;2.00;1.10;;;4.40;99.90;;;;;;5070909;28;20017;-68
2021/01/08 11:20:25;;;;;;;2.92;1.80;;;4.50;99.90;;;;;;5071980;28;20090;-67
2021/01/08 11:22:51;;;;;;;1.50;1.40;;;4.50;99.90;;;;;;5071685;28;20033;-68
2021/01/08 11:25:17;;;;;;;1.40;1.30;;;4.60;99.90;;;;;;5071221;28;20026;-68
2021/01/08 11:27:43;;;;;;;0.90;0.90;;;4.70;99.90;;;;;;5072152;28;20400;-67
2021/01/08 11:30:10;;;;;;;1.27;1.05;;;4.70;99.90;;;;;;5071958;28;20036;-67
2021/01/08 11:32:36;;;;;;;1.00;0.80;;;4.80;99.90;;;;;;5071273;28;20024;-67
2021/01/08 11:35:03;;;;;;;1.30;1.17;;;4.80;99.90;;;;;;5072079;28;20017;-68
2021/01/08 11:37:31;;;;;;;1.45;1.30;;;4.80;99.90;;;;;;5082955;28;20021;-67
2021/01/08 11:39:56;;;;;;;0.77;0.75;;;4.90;99.90;;;;;;5080348;28;20536;-66
2021/01/08 11:42:22;;;;;;;2.05;1.13;;;4.90;99.90;;;;;;5083079;28;20103;-67
2021/01/08 11:44:47;;;;;;;0.80;0.80;;;4.90;99.90;;;;;;5088746;28;20469;-67
2021/01/08 11:47:13;;;;;;;1.10;1.00;;;5.00;99.90;;;;;;5083193;28;20478;-67
2021/01/08 11:49:38;;;;;;;1.13;0.95;;;5.10;99.90;;;;;;5078945;28;20028;-66
2021/01/08 11:52:04;;;;;;;1.60;1.10;;;5.20;99.90;;;;;;5078531;28;20024;-66
2021/01/08 11:54:29;;;;;;;1.42;1.00;;;5.20;99.90;;;;;;5077823;28;20021;-67
2021/01/08 11:56:55;;;;;;;2.35;0.95;;;5.30;99.90;;;;;;5074898;28;20099;-67
2021/01/08 11:59:21;;;;;;;0.90;0.88;;;5.20;99.90;;;;;;5071902;28;20031;-67
2021/01/08 12:01:46;;;;;;;3.65;1.10;;;5.20;99.90;;;;;;5082080;28;20127;-68
2021/01/08 12:04:12;;;;;;;4.05;1.20;;;5.10;99.90;;;;;;5071359;28;20082;-68
2021/01/08 12:06:38;;;;;;;1.48;0.98;;;5.00;99.90;;;;;;5091879;28;20416;-68
2021/01/08 12:09:07;;;;;;;1.20;0.73;;;4.90;99.90;;;;;;5091313;28;20111;-68
2021/01/08 12:11:33;;;;;;;1.23;0.93;;;4.90;99.90;;;;;;5091611;28;20456;-68
2021/01/08 12:13:58;;;;;;;1.15;1.00;;;4.90;99.90;;;;;;5090982;28;20036;-68
2021/01/08 12:16:31;;;;;;;0.70;0.70;;;5.00;99.90;;;;;;5091331;28;20027;-67
2021/01/08 12:18:57;;;;;;;0.75;0.75;;;5.00;99.90;;;;;;5091676;28;20024;-67
2021/01/08 12:21:23;;;;;;;0.80;0.80;;;5.00;99.90;;;;;;5090821;28;20028;-68
2021/01/08 12:23:52;;;;;;;1.55;0.80;;;5.00;99.90;;;;;;5092066;28;20027;-70
2021/01/08 12:26:19;;;;;;;1.17;0.95;;;5.00;99.90;;;;;;5091173;28;20028;-68
2021/01/08 12:28:49;;;;;;;1.25;0.88;;;5.00;99.90;;;;;;5091168;28;20402;-68
2021/01/08 12:31:15;;;;;;;3.65;0.90;;;5.00;99.90;;;;;;5091297;28;20021;-68
2021/01/08 12:33:43;;;;;;;1.63;1.30;;;5.00;99.90;;;;;;5092571;28;20028;-68
2021/01/08 12:36:09;;;;;;;0.60;0.60;;;5.00;99.90;;;;;;5095328;28;20097;-68
2021/01/08 12:38:35;;;;;;;0.82;0.82;;;5.00;99.90;;;;;;5095452;28;20476;-68
2021/01/08 12:41:01;;;;;;;2.08;1.20;;;4.90;99.90;;;;;;5095447;28;20032;-68
2021/01/08 12:43:26;;;;;;;1.83;1.00;;;4.90;99.90;;;;;;5094418;28;20143;-70
2021/01/08 12:45:52;;;;;;;1.88;1.27;;;4.90;99.90;;;;;;5095546;28;20060;-68
2021/01/08 12:48:17;;;;;;;1.20;1.10;;;4.90;99.90;;;;;;5095370;28;20031;-67
2021/01/08 12:50:43;;;;;;;2.38;1.33;;;4.90;99.90;;;;;;5094568;28;20502;-67
2021/01/08 12:53:10;;;;;;;1.70;1.60;;;4.90;99.90;;;;;;5095766;28;20028;-67
2021/01/08 12:55:35;;;;;;;1.42;1.33;;;4.90;99.90;;;;;;5076647;28;20024;-66
2021/01/08 12:58:01;;;;;;;1.83;1.70;;;4.90;99.90;;;;;;5076643;28;20026;-66
2021/01/08 13:00:27;;;;;;;2.10;1.90;;;4.90;99.90;;;;;;5073927;28;20036;-67